Time;durP1;ratioP1;P1;durP2;ratioP2;P2;SDS_P1;SDS_P2;PMS_P1;PMS_P2;Temp;Humidity;BMP_temperature;BMP_pressure;BME280_temperature;BME280_humidity;BME280_pressure;Samples;Min_cycle;Max_cycle;Signal;HPM_P1;HPM_P2
2022/04/05 00:00:36;;;;;;;14.70;11.15;;;;;;;2.40;100.00;100787.66;1658333;86;21069;-80
2022/04/05 00:03:04;;;;;;;15.05;11.73;;;;;;;2.36;100.00;100786.94;1640101;86;21099;-80
2022/04/05 00:05:32;;;;;;;13.45;10.70;;;;;;;2.32;100.00;100788.39;1654865;84;21129;-80
2022/04/05 00:08:00;;;;;;;15.55;11.18;;;;;;;2.26;100.00;100784.31;1658447;86;21101;-84
2022/04/05 00:10:27;;;;;;;15.88;11.28;;;;;;;2.25;100.00;100783.09;1658168;85;21651;-85
2022/04/05 00:12:58;;;;;;;14.43;11.45;;;;;;;2.21;100.00;100781.92;1658579;84;21117;-86
2022/04/05 00:15:27;;;;;;;14.50;11.22;;;;;;;2.18;100.00;100787.19;1658613;85;21519;-78
2022/04/05 00:17:55;;;;;;;13.58;11.65;;;;;;;2.09;100.00;100775.97;1658141;85;21110;-79
2022/04/05 00:20:22;;;;;;;18.02;12.30;;;;;;;2.03;100.00;100774.91;1658168;85;21125;-79
2022/04/05 00:22:50;;;;;;;14.00;11.10;;;;;;;1.96;100.00;100774.75;1658144;85;21030;-78
2022/04/05 00:25:19;;;;;;;15.35;11.65;;;;;;;1.88;100.00;100775.84;1658621;86;21476;-81
2022/04/05 00:27:47;;;;;;;15.38;11.97;;;;;;;1.78;100.00;100777.52;1658341;85;21850;-78
2022/04/05 00:30:16;;;;;;;14.43;11.90;;;;;;;1.78;100.00;100777.52;1658337;85;21843;-80
2022/04/05 00:32:46;;;;;;;14.83;12.05;;;;;;;1.71;100.00;100773.89;1658430;86;21173;-80
2022/04/05 00:35:13;;;;;;;14.00;11.22;;;;;;;1.65;100.00;100775.40;1658210;85;21610;-79
2022/04/05 00:37:41;;;;;;;14.85;11.88;;;;;;;1.57;100.00;100773.55;1658441;86;21030;-78
2022/04/05 00:40:10;;;;;;;13.75;10.80;;;;;;;1.48;100.00;100776.00;1658337;85;21551;-78
2022/04/05 00:42:38;;;;;;;13.20;10.88;;;;;;;1.41;100.00;100770.66;1658514;85;21108;-81
2022/04/05 00:45:07;;;;;;;16.82;12.33;;;;;;;1.36;100.00;100767.42;1658591;86;21139;-83
2022/04/05 00:47:36;;;;;;;14.20;11.65;;;;;;;1.31;100.00;100767.58;1658078;86;21148;-79
2022/04/05 00:50:06;;;;;;;15.53;11.53;;;;;;;1.24;100.00;100770.78;1658556;86;21058;-81
2022/04/05 00:52:33;;;;;;;14.30;11.00;;;;;;;1.19;100.00;100769.29;1658566;84;21081;-78
2022/04/05 00:55:03;;;;;;;14.35;10.55;;;;;;;1.12;100.00;100766.53;1658298;85;21022;-77
2022/04/05 00:57:31;;;;;;;15.48;10.90;;;;;;;1.10;100.00;100775.12;1658524;85;21144;-80
2022/04/05 01:00:04;;;;;;;14.13;10.38;;;;;;;1.09;100.00;100770.02;1658714;85;21106;-79
2022/04/05 01:02:36;;;;;;;14.07;10.48;;;;;;;1.08;100.00;100769.19;1656766;85;21038;-78
2022/04/05 01:05:07;;;;;;;13.18;10.78;;;;;;;1.08;100.00;100765.34;1653492;85;21085;-85
2022/04/05 01:07:42;;;;;;;13.18;9.95;;;;;;;1.06;100.00;100759.88;1650128;85;21014;-79
2022/04/05 01:10:10;;;;;;;13.72;10.32;;;;;;;1.05;100.00;100762.05;1658929;84;21646;-79
2022/04/05 01:12:38;;;;;;;12.95;9.63;;;;;;;1.06;100.00;100759.88;1669047;84;21056;-78
2022/04/05 01:15:08;;;;;;;14.03;9.85;;;;;;;1.08;100.00;100763.23;1680235;84;21046;-78
2022/04/05 01:17:37;;;;;;;14.70;11.23;;;;;;;1.10;100.00;100760.16;1658426;85;21073;-77
2022/04/05 01:20:07;;;;;;;14.38;10.68;;;;;;;1.11;100.00;100766.97;1658350;85;21486;-85
2022/04/05 01:22:34;;;;;;;13.25;11.03;;;;;;;1.10;100.00;100764.00;1658605;85;22154;-84
2022/04/05 01:25:03;;;;;;;14.53;11.50;;;;;;;1.08;100.00;100762.78;1658136;85;21042;-80
2022/04/05 01:27:30;;;;;;;17.15;11.90;;;;;;;1.08;100.00;100762.78;1658669;85;21117;-78
2022/04/05 01:29:57;;;;;;;14.95;10.98;;;;;;;1.07;100.00;100754.69;1658271;85;21030;-79
2022/04/05 01:32:24;;;;;;;13.93;11.18;;;;;;;1.04;100.00;100756.06;1658402;85;21039;-78
2022/04/05 01:34:52;;;;;;;12.03;10.43;;;;;;;1.00;100.00;100756.23;1641464;86;21244;-78
2022/04/05 01:37:19;;;;;;;13.80;10.50;;;;;;;0.98;100.00;100754.16;1658300;85;21125;-78
2022/04/05 01:39:47;;;;;;;15.15;11.30;;;;;;;0.99;100.00;100756.67;1658255;85;21826;-78
2022/04/05 01:42:16;;;;;;;15.50;10.35;;;;;;;1.00;100.00;100752.39;1658476;85;21148;-78
2022/04/05 01:44:44;;;;;;;15.30;11.12;;;;;;;1.01;100.00;100751.48;1658635;85;21049;-78
2022/04/05 01:47:17;;;;;;;15.60;11.85;;;;;;;1.01;100.00;100748.48;1658534;86;21877;-78
2022/04/05 01:49:48;;;;;;;16.62;12.88;;;;;;;1.02;100.00;100740.34;1657993;86;21113;-78
2022/04/05 01:52:16;;;;;;;19.23;12.73;;;;;;;1.03;100.00;100739.45;1657963;85;21089;-79
2022/04/05 01:54:43;;;;;;;16.45;12.07;;;;;;;1.02;100.00;100740.34;1658236;85;21144;-81
2022/04/05 01:57:10;;;;;;;20.90;13.32;;;;;;;0.99;100.00;100741.28;1658647;86;22205;-78
2022/04/05 01:59:39;;;;;;;17.00;13.32;;;;;;;0.96;100.00;100748.23;1658785;85;21869;-79
2022/04/05 02:02:09;;;;;;;17.27;14.50;;;;;;;0.90;100.00;100739.02;1658040;85;21092;-84
2022/04/05 02:04:38;;;;;;;19.17;14.25;;;;;;;0.84;100.00;100738.77;1658418;85;21061;-79
2022/04/05 02:07:13;;;;;;;21.90;15.08;;;;;;;0.74;100.00;100736.13;1657716;86;21105;-78
2022/04/05 02:09:41;;;;;;;19.87;15.60;;;;;;;0.60;100.00;100742.51;1658275;85;21053;-80
2022/04/05 02:12:10;;;;;;;18.40;14.38;;;;;;;0.44;100.00;100743.45;1658437;85;21149;-78
2022/04/05 02:14:49;;;;;;;20.20;15.13;;;;;;;0.33;100.00;100745.48;1658481;85;21038;-78
2022/04/05 02:17:20;;;;;;;25.10;17.15;;;;;;;0.20;100.00;100745.02;1656000;85;21066;-78
2022/04/05 02:19:47;;;;;;;19.67;15.15;;;;;;;0.10;100.00;100748.75;1658546;86;21089;-78
2022/04/05 02:22:18;;;;;;;17.62;14.80;;;;;;;0.03;100.00;100747.25;1658515;85;21033;-81
2022/04/05 02:24:47;;;;;;;19.62;14.65;;;;;;;-0.05;100.00;100740.64;1640610;86;21377;-78
2022/04/05 02:27:17;;;;;;;20.88;14.35;;;;;;;-0.12;100.00;100740.84;1658308;85;21625;-78
2022/04/05 02:29:46;;;;;;;20.08;14.65;;;;;;;-0.17;100.00;100747.38;1657195;85;21088;-86
2022/04/05 02:32:15;;;;;;;18.57;12.68;;;;;;;-0.24;100.00;100744.59;1655338;85;21027;-79
2022/04/05 02:34:43;;;;;;;17.32;12.95;;;;;;;-0.33;100.00;100745.24;1658643;85;21543;-81
2022/04/05 02:37:10;;;;;;;18.35;13.28;;;;;;;-0.41;100.00;100743.34;1658082;85;21808;-79
2022/04/05 02:39:38;;;;;;;17.48;13.25;;;;;;;-0.50;100.00;100746.99;1658300;86;21062;-78
2022/04/05 02:42:08;;;;;;;14.28;11.43;;;;;;;-0.56;100.00;100748.41;1641214;86;21133;-79
2022/04/05 02:44:38;;;;;;;16.62;11.83;;;;;;;-0.61;100.00;100746.88;1655586;86;21060;-78
2022/04/05 02:47:07;;;;;;;15.45;12.15;;;;;;;-0.67;100.00;100744.04;1658149;85;21394;-77
2022/04/05 02:49:36;;;;;;;17.48;13.05;;;;;;;-0.70;100.00;100737.30;1655669;85;21994;-78
2022/04/05 02:52:05;;;;;;;16.25;12.37;;;;;;;-0.72;100.00;100740.77;1658318;85;21030;-81
2022/04/05 02:54:34;;;;;;;18.62;12.55;;;;;;;-0.74;100.00;100740.79;1655925;85;21072;-77
2022/04/05 02:57:04;;;;;;;17.85;12.45;;;;;;;-0.76;100.00;100743.82;1641345;85;21716;-85
2022/04/05 02:59:31;;;;;;;16.87;12.98;;;;;;;-0.78;100.00;100748.58;1619838;86;21103;-85
2022/04/05 03:02:00;;;;;;;17.27;12.82;;;;;;;-0.80;100.00;100748.63;1658363;85;21563;-79
2022/04/05 03:04:27;;;;;;;17.65;13.10;;;;;;;-0.83;100.00;100747.00;1623769;86;21149;-78
2022/04/05 03:06:55;;;;;;;17.98;13.20;;;;;;;-0.88;100.00;100746.25;1658185;85;21611;-83
2022/04/05 03:09:24;;;;;;;16.73;13.00;;;;;;;-0.91;100.00;100757.00;1658298;85;21524;-80
2022/04/05 03:11:54;;;;;;;20.02;13.55;;;;;;;-0.96;100.00;100752.85;1658353;86;21054;-81
2022/04/05 03:14:21;;;;;;;18.75;13.25;;;;;;;-1.01;100.00;100754.70;1641005;85;21877;-80
2022/04/05 03:16:49;;;;;;;17.02;12.95;;;;;;;-1.05;100.00;100755.63;1658205;85;21124;-79
2022/04/05 03:19:18;;;;;;;18.42;12.80;;;;;;;-1.07;100.00;100757.83;1658549;85;21072;-80
2022/04/05 03:21:48;;;;;;;16.95;12.90;;;;;;;-1.09;100.00;100759.16;1658466;85;21089;-78
2022/04/05 03:24:15;;;;;;;16.97;12.07;;;;;;;-1.08;100.00;100758.25;1658693;85;21100;-79
2022/04/05 03:26:44;;;;;;;17.95;13.25;;;;;;;-1.05;100.00;100763.75;1658045;85;21222;-79
2022/04/05 03:29:11;;;;;;;16.97;12.80;;;;;;;-1.03;100.00;100763.25;1658337;86;21586;-81
2022/04/05 03:31:38;;;;;;;22.98;13.58;;;;;;;-1.00;100.00;100761.91;1658421;85;21125;-78
2022/04/05 03:34:06;;;;;;;22.10;13.55;;;;;;;-1.00;100.00;100765.30;1658376;84;21101;-78
2022/04/05 03:36:35;;;;;;;17.67;12.82;;;;;;;-1.01;100.00;100768.76;1641791;86;21491;-84
2022/04/05 03:39:02;;;;;;;18.52;13.25;;;;;;;-1.03;100.00;100763.25;1658716;86;21763;-85
2022/04/05 03:41:30;;;;;;;16.93;12.88;;;;;;;-1.02;100.00;100775.16;1658725;85;21102;-85
2022/04/05 03:43:58;;;;;;;16.15;12.55;;;;;;;-0.99;100.00;100776.37;1658034;85;21148;-84
2022/04/05 03:46:27;;;;;;;17.80;13.75;;;;;;;-0.91;100.00;100770.64;1655919;86;21361;-78
2022/04/05 03:48:56;;;;;;;17.02;11.90;;;;;;;-0.81;100.00;100773.80;1658405;85;21566;-78
2022/04/05 03:51:24;;;;;;;18.35;13.40;;;;;;;-0.73;100.00;100768.05;1658602;85;21149;-78
2022/04/05 03:53:56;;;;;;;18.65;12.85;;;;;;;-0.65;100.00;100763.58;1656015;86;21066;-78
2022/04/05 03:56:24;;;;;;;17.87;13.83;;;;;;;-0.54;100.00;100772.24;1658846;86;21042;-78
2022/04/05 03:58:52;;;;;;;19.75;15.32;;;;;;;-0.47;100.00;100763.98;1641516;86;21050;-78
2022/04/05 04:01:19;;;;;;;18.20;13.55;;;;;;;-0.41;100.00;100764.26;1658553;85;21618;-78
2022/04/05 04:03:48;;;;;;;17.42;13.35;;;;;;;-0.38;100.00;100771.41;1658355;85;21039;-78
2022/04/05 04:06:16;;;;;;;20.72;13.32;;;;;;;-0.34;100.00;100761.93;1658597;85;21105;-79
2022/04/05 04:08:44;;;;;;;17.70;12.47;;;;;;;-0.26;100.00;100770.23;1641344;86;21146;-79
2022/04/05 04:11:15;;;;;;;18.30;14.33;;;;;;;-0.14;100.00;100772.04;1641867;86;22130;-86
2022/04/05 04:13:44;;;;;;;16.20;13.60;;;;;;;-0.06;100.00;100765.84;1658570;85;21642;-82
2022/04/05 04:16:12;;;;;;;20.02;13.55;;;;;;;0.04;100.00;100769.42;1658425;85;21344;-78
2022/04/05 04:18:41;;;;;;;20.55;14.60;;;;;;;0.12;100.00;100768.76;1641275;86;21024;-79
2022/04/05 04:21:10;;;;;;;20.92;14.23;;;;;;;0.20;100.00;100768.06;1658163;86;21074;-78
2022/04/05 04:23:40;;;;;;;17.73;14.25;;;;;;;0.30;100.00;100773.31;1658038;86;21100;-78
2022/04/05 04:26:07;;;;;;;17.80;14.47;;;;;;;0.38;100.00;100775.66;1658057;85;21117;-79
2022/04/05 04:28:35;;;;;;;18.85;15.05;;;;;;;0.47;100.00;100771.98;1658274;85;21672;-80
2022/04/05 04:31:02;;;;;;;18.55;15.03;;;;;;;0.54;100.00;100770.90;1658551;85;21050;-78
2022/04/05 04:33:29;;;;;;;21.35;16.62;;;;;;;0.62;100.00;100771.50;1656090;85;21073;-79
2022/04/05 04:35:57;;;;;;;20.82;17.17;;;;;;;0.68;100.00;100773.04;1658418;85;21625;-79
2022/04/05 04:38:25;;;;;;;22.32;16.87;;;;;;;0.73;100.00;100759.63;1658801;85;21007;-77
2022/04/05 04:40:52;;;;;;;21.23;16.57;;;;;;;0.80;100.00;100760.73;1658400;86;21382;-80
2022/04/05 04:43:23;;;;;;;23.22;19.40;;;;;;;0.88;100.00;100760.05;1658516;85;21046;-79
2022/04/05 04:45:49;;;;;;;22.77;17.82;;;;;;;0.96;100.00;100754.65;1655567;85;21038;-79
2022/04/05 04:48:17;;;;;;;30.88;17.40;;;;;;;1.06;100.00;100767.57;1658729;85;21113;-77
2022/04/05 04:50:45;;;;;;;25.25;17.60;;;;;;;1.15;100.00;100771.12;1658479;85;21074;-79
2022/04/05 04:53:12;;;;;;;21.07;17.75;;;;;;;1.23;100.00;100770.84;1658773;85;21156;-78
2022/04/05 04:55:40;;;;;;;20.85;16.55;;;;;;;1.31;100.00;100772.70;1658273;85;21596;-78
2022/04/05 04:58:08;;;;;;;22.37;16.93;;;;;;;1.41;100.00;100771.94;1658482;86;21670;-78
2022/04/05 05:00:35;;;;;;;19.20;15.83;;;;;;;1.52;100.00;100779.30;1656910;85;21785;-86
2022/04/05 05:03:03;;;;;;;19.30;16.25;;;;;;;1.57;100.00;100779.50;1650332;86;21068;-84
2022/04/05 05:05:31;;;;;;;26.23;16.60;;;;;;;1.67;100.00;100781.75;1657509;85;21849;-87
2022/04/05 05:07:58;;;;;;;21.90;16.42;;;;;;;1.76;100.00;100784.00;1657771;85;21555;-85
2022/04/05 05:10:27;;;;;;;20.62;16.70;;;;;;;1.86;100.00;100784.07;1658143;85;21073;-81
2022/04/05 05:12:54;;;;;;;19.90;17.25;;;;;;;2.05;100.00;100791.09;1658007;86;21074;-79
2022/04/05 05:15:24;;;;;;;24.80;17.65;;;;;;;2.14;100.00;100786.90;1657874;86;21065;-81
2022/04/05 05:17:51;;;;;;;26.30;17.90;;;;;;;2.23;100.00;100786.16;1658165;85;21051;-77
2022/04/05 05:20:20;;;;;;;36.23;17.12;;;;;;;2.31;100.00;100789.28;1657466;85;21631;-78
2022/04/05 05:22:49;;;;;;;19.57;15.23;;;;;;;2.39;100.00;100784.69;1656377;85;21066;-79
2022/04/05 05:25:17;;;;;;;19.50;15.55;;;;;;;2.39;100.00;100784.69;1656768;85;21188;-80
2022/04/05 05:27:44;;;;;;;33.75;16.25;;;;;;;2.48;100.00;100783.06;1656842;86;21062;-77
2022/04/05 05:30:11;;;;;;;21.27;15.48;;;;;;;2.58;100.00;100774.53;1657073;85;21233;-79
2022/04/05 05:32:52;;;;;;;20.55;15.53;;;;;;;2.71;100.00;100765.89;1656722;85;21083;-78
2022/04/05 05:35:21;;;;;;;26.23;16.23;;;;;;;2.82;100.00;100754.73;1657826;84;21149;-78
2022/04/05 05:37:50;;;;;;;22.02;16.02;;;;;;;2.95;100.00;100756.36;1671687;84;21554;-79
2022/04/05 05:40:19;;;;;;;26.77;16.07;;;;;;;3.08;100.00;100759.70;1658206;85;21081;-79
2022/04/05 05:42:56;;;;;;;15.75;13.95;;;;;;;3.21;100.00;100756.17;1658461;85;21097;-78
2022/04/05 05:45:25;;;;;;;21.33;13.00;;;;;;;3.32;100.00;100755.28;1658076;85;21101;-83
2022/04/05 05:47:53;;;;;;;16.23;12.82;;;;;;;3.44;100.00;100753.45;1656000;85;21650;-85
2022/04/05 05:50:22;;;;;;;17.70;11.93;;;;;;;3.55;100.00;100753.45;1651594;85;21624;-80
2022/04/05 05:52:49;;;;;;;25.43;12.58;;;;;;;3.67;100.00;100755.47;1655001;86;21086;-80
2022/04/05 05:55:20;;;;;;;18.65;11.40;;;;;;;3.79;100.00;100752.37;1617189;85;21799;-81
2022/04/05 05:57:48;;;;;;;17.02;11.55;;;;;;;3.91;100.00;100750.98;1658037;85;21085;-79
2022/04/05 06:00:22;;;;;;;19.95;11.97;;;;;;;4.06;100.00;100746.03;1657950;85;21670;-78
2022/04/05 06:02:56;;;;;;;24.57;12.23;;;;;;;4.18;100.00;100748.50;1658416;85;21180;-78
2022/04/05 06:05:26;;;;;;;14.68;9.90;;;;;;;4.29;100.00;100744.95;1658028;85;21077;-81
2022/04/05 06:07:54;;;;;;;23.25;12.03;;;;;;;4.42;100.00;100747.80;1657431;85;21720;-78
2022/04/05 06:10:23;;;;;;;13.08;10.78;;;;;;;4.53;100.00;100741.69;1658022;86;21375;-78
2022/04/05 06:12:52;;;;;;;16.40;10.88;;;;;;;4.63;100.00;100731.75;1658056;86;21087;-80
2022/04/05 06:15:20;;;;;;;16.67;10.53;;;;;;;4.72;100.00;100735.65;1658603;85;21128;-82
2022/04/05 06:17:49;;;;;;;26.00;11.50;;;;;;;4.77;100.00;100732.37;1658141;86;21106;-79
2022/04/05 06:20:20;;;;;;;24.20;11.48;;;;;;;4.80;100.00;100733.53;1658220;85;21258;-78
2022/04/05 06:22:56;;;;;;;19.67;11.50;;;;;;;4.80;100.00;100727.52;1655727;86;21072;-81
2022/04/05 06:25:36;;;;;;;34.23;23.00;;;;;;;4.82;100.00;100735.56;1655661;85;21516;-79
2022/04/05 06:28:06;;;;;;;109.97;22.45;;;;;;;4.85;100.00;100734.56;1631622;86;21033;-79
2022/04/05 06:30:39;;;;;;;33.13;15.45;;;;;;;4.97;100.00;100736.56;1631324;86;21121;-82
2022/04/05 06:33:15;;;;;;;23.10;13.85;;;;;;;5.15;100.00;100728.81;1631548;86;21869;-80
2022/04/05 06:35:46;;;;;;;19.57;12.85;;;;;;;5.22;100.00;100734.04;1631270;87;21085;-80
2022/04/05 06:38:14;;;;;;;;;;;;;;;5.19;100.00;100742.78;1645301;86;21113;-79
2022/04/05 06:40:43;;;;;;;27.07;13.38;;;;;;;5.11;100.00;100742.33;1658206;85;20748;-86
2022/04/05 06:43:12;;;;;;;16.15;13.43;;;;;;;5.01;100.00;100738.06;1651321;85;21065;-86
2022/04/05 06:45:42;;;;;;;16.25;13.32;;;;;;;4.96;100.00;100738.75;1601944;88;21046;-82
2022/04/05 06:48:11;;;;;;;19.52;14.95;;;;;;;4.93;100.00;100744.05;1657888;85;21070;-81
2022/04/05 06:50:39;;;;;;;27.25;16.62;;;;;;;4.89;100.00;100745.13;1632226;86;21543;-79
2022/04/05 06:53:08;;;;;;;20.60;16.27;;;;;;;4.89;100.00;100735.63;1647008;85;21034;-78
2022/04/05 06:55:38;;;;;;;25.65;17.77;;;;;;;4.91;100.00;100735.58;1655813;85;21579;-79
2022/04/05 06:58:06;;;;;;;20.60;16.00;;;;;;;4.91;100.00;100734.29;1658234;86;21132;-78
2022/04/05 07:00:36;;;;;;;16.67;13.70;;;;;;;4.89;100.00;100732.23;1658035;85;21033;-79
2022/04/05 07:03:06;;;;;;;15.85;13.43;;;;;;;4.87;100.00;100732.31;1658171;86;21673;-83
2022/04/05 07:05:33;;;;;;;21.35;14.05;;;;;;;4.86;100.00;100729.79;1658053;85;21147;-84
2022/04/05 07:08:01;;;;;;;16.20;12.35;;;;;;;4.89;100.00;100734.81;1658004;85;21049;-85
2022/04/05 07:10:30;;;;;;;17.32;13.30;;;;;;;4.93;100.00;100729.04;1658306;85;21113;-80
2022/04/05 07:12:59;;;;;;;14.23;11.95;;;;;;;4.96;100.00;100727.14;1658334;85;21545;-78
2022/04/05 07:15:28;;;;;;;14.15;12.25;;;;;;;4.99;100.00;100727.00;1658533;85;21098;-79
2022/04/05 07:17:57;;;;;;;16.52;12.35;;;;;;;4.99;100.00;100724.86;1658109;85;21022;-82
2022/04/05 07:20:25;;;;;;;17.55;12.25;;;;;;;4.97;100.00;100733.98;1658677;85;22250;-79
2022/04/05 07:22:53;;;;;;;18.75;11.90;;;;;;;4.95;100.00;100727.23;1658223;85;21446;-79
2022/04/05 07:25:20;;;;;;;13.72;10.78;;;;;;;4.90;100.00;100727.45;1658016;86;21785;-79
2022/04/05 07:27:52;;;;;;;16.87;11.88;;;;;;;4.86;100.00;100723.34;1657838;84;21546;-78
2022/04/05 07:30:21;;;;;;;15.15;12.00;;;;;;;4.81;100.00;100721.45;1658379;85;21018;-78
2022/04/05 07:32:49;;;;;;;14.68;11.63;;;;;;;4.76;100.00;100720.86;1658439;85;21065;-78
2022/04/05 07:35:18;;;;;;;16.70;10.98;;;;;;;4.74;100.00;100714.02;1658173;85;21842;-79
2022/04/05 07:37:45;;;;;;;15.63;12.03;;;;;;;4.72;100.00;100708.56;1658309;84;21073;-84
2022/04/05 07:40:15;;;;;;;14.78;12.28;;;;;;;4.74;100.00;100708.01;1658133;84;21113;-85
2022/04/05 07:42:46;;;;;;;13.72;11.10;;;;;;;4.78;100.00;100705.67;1658130;86;21065;-79
2022/04/05 07:45:17;;;;;;;21.17;12.50;;;;;;;4.87;100.00;100705.22;1640004;85;21074;-79
2022/04/05 07:47:55;;;;;;;69.87;50.85;;;;;;;5.00;100.00;100698.99;1650730;85;21210;-86
2022/04/05 07:50:26;;;;;;;17.87;12.25;;;;;;;5.15;100.00;100699.94;1652177;85;21658;-83
2022/04/05 07:52:55;;;;;;;16.87;11.85;;;;;;;5.34;100.00;100701.59;1644546;84;22097;-82
2022/04/05 07:55:25;;;;;;;14.07;11.25;;;;;;;5.49;100.00;100693.48;1649938;85;21091;-79
2022/04/05 07:57:59;;;;;;;17.67;11.90;;;;;;;5.68;100.00;100695.48;1647285;85;21679;-81
2022/04/05 08:00:29;;;;;;;18.05;11.78;;;;;;;5.90;100.00;100690.91;1656184;86;21108;-78
2022/04/05 08:02:58;;;;;;;16.32;12.10;;;;;;;6.11;100.00;100682.48;1654094;85;21051;-84
2022/04/05 08:05:29;;;;;;;15.13;12.10;;;;;;;6.29;100.00;100677.55;1656154;85;21587;-84
2022/04/05 08:07:58;;;;;;;14.73;11.38;;;;;;;6.48;100.00;100672.64;1655789;85;21580;-80
2022/04/05 08:10:26;;;;;;;17.52;11.90;;;;;;;6.64;100.00;100662.26;1641302;85;21093;-80
2022/04/05 08:12:55;;;;;;;13.40;11.03;;;;;;;6.82;100.00;100660.34;1639402;86;21847;-80
2022/04/05 08:15:25;;;;;;;12.98;11.03;;;;;;;6.95;100.00;100648.33;1657632;85;21064;-80
2022/04/05 08:17:55;;;;;;;13.83;11.45;;;;;;;7.17;100.00;100643.16;1654049;86;21158;-79
2022/04/05 08:20:24;;;;;;;14.60;11.08;;;;;;;7.40;100.00;100637.88;1657355;85;21010;-81
2022/04/05 08:22:54;;;;;;;16.50;11.48;;;;;;;7.58;100.00;100635.09;1646051;85;21112;-79
2022/04/05 08:25:30;;;;;;;13.88;11.00;;;;;;;7.75;100.00;100627.53;1651842;84;21062;-86
2022/04/05 08:27:58;;;;;;;17.15;12.70;;;;;;;7.95;100.00;100627.56;1639564;85;21060;-81
2022/04/05 08:30:28;;;;;;;16.10;10.93;;;;;;;8.09;100.00;100621.50;1658482;85;21073;-81
2022/04/05 08:32:55;;;;;;;17.05;10.93;;;;;;;8.16;100.00;100618.88;1654402;85;21037;-80
2022/04/05 08:35:24;;;;;;;12.70;11.20;;;;;;;8.25;100.00;100617.46;1650740;85;21032;-80
2022/04/05 08:37:55;;;;;;;12.80;11.50;;;;;;;8.43;100.00;100611.97;1657822;85;21263;-80
2022/04/05 08:40:26;;;;;;;17.75;10.98;;;;;;;8.56;100.00;100612.02;1657372;85;21668;-81
2022/04/05 08:42:57;;;;;;;11.53;10.00;;;;;;;8.67;100.00;100610.84;1648754;85;21060;-81
2022/04/05 08:45:26;;;;;;;13.38;10.78;;;;;;;8.67;100.00;100610.84;1652153;85;21123;-80
2022/04/05 08:47:59;;;;;;;12.47;10.00;;;;;;;8.61;100.00;100606.08;1653175;85;21056;-80
2022/04/05 08:50:32;;;;;;;14.25;10.18;;;;;;;8.49;100.00;100600.75;1647851;85;21261;-83
2022/04/05 08:53:01;;;;;;;10.20;9.13;;;;;;;8.37;100.00;100589.87;1654002;85;21506;-89
2022/04/05 08:55:30;;;;;;;18.62;10.35;;;;;;;8.23;100.00;100592.08;1651091;85;21544;-85
2022/04/05 08:57:57;;;;;;;11.12;9.45;;;;;;;8.09;100.00;100599.45;1649952;85;21013;-81
2022/04/05 09:00:26;;;;;;;11.53;9.48;;;;;;;8.02;100.00;100589.94;1655099;85;21153;-80
2022/04/05 09:03:05;;;;;;;10.18;9.08;;;;;;;7.99;100.00;100575.05;1648803;85;21166;-81
2022/04/05 09:05:37;;;;;;;10.90;9.13;;;;;;;7.96;100.00;100579.15;1657756;85;21047;-80
2022/04/05 09:08:27;;;;;;;10.55;9.28;;;;;;;7.92;100.00;100584.15;1657383;85;21067;-86
2022/04/05 09:11:12;;;;;;;11.93;10.05;;;;;;;7.88;100.00;100573.15;1643534;86;21553;-80
2022/04/05 09:13:41;;;;;;;10.60;9.55;;;;;;;7.87;100.00;100567.14;1656429;84;21079;-89
2022/04/05 09:16:08;;;;;;;10.50;9.25;;;;;;;7.89;100.00;100567.03;1656998;85;22004;-81
2022/04/05 09:18:45;;;;;;;10.05;9.05;;;;;;;7.99;100.00;100554.30;1647686;85;21065;-81
2022/04/05 09:21:15;;;;;;;10.00;8.93;;;;;;;8.15;100.00;100560.14;1651363;86;21087;-81
2022/04/05 09:23:44;;;;;;;9.88;8.88;;;;;;;8.34;100.00;100536.88;1636623;86;21117;-81
2022/04/05 09:26:17;;;;;;;10.95;9.85;;;;;;;8.34;100.00;100536.88;1651848;86;21027;-81
2022/04/05 09:28:51;;;;;;;11.03;9.28;;;;;;;8.34;100.00;100533.80;1655216;85;21119;-81
2022/04/05 09:31:21;;;;;;;11.73;9.35;;;;;;;8.34;100.00;100533.80;1634900;86;21066;-80
2022/04/05 09:34:13;;;;;;;10.75;9.55;;;;;;;8.32;100.00;100533.10;1653229;85;21097;-80
2022/04/05 09:36:44;;;;;;;10.20;9.10;;;;;;;8.29;100.00;100525.99;1641224;85;21034;-80
2022/04/05 09:39:26;;;;;;;10.80;9.30;;;;;;;8.30;100.00;100523.28;1636683;86;21039;-82
2022/04/05 09:42:05;;;;;;;11.95;9.55;;;;;;;8.28;100.00;100524.33;1656815;85;21146;-83
2022/04/05 09:47:20;;;;;;;11.43;8.48;;;;;;;8.10;100.00;100518.13;1657751;85;21209;-79
2022/04/05 09:49:50;;;;;;;10.63;9.53;;;;;;;8.02;100.00;100524.28;1650644;85;21126;-80
2022/04/05 09:52:32;;;;;;;11.05;9.95;;;;;;;7.92;100.00;100510.25;1635689;86;21156;-80
2022/04/05 09:55:15;;;;;;;10.90;9.28;;;;;;;7.82;100.00;100510.85;1657674;85;21198;-80
2022/04/05 09:57:43;;;;;;;13.55;9.60;;;;;;;7.83;100.00;100518.18;1638816;86;21103;-80
2022/04/05 10:00:18;;;;;;;15.08;10.20;;;;;;;7.93;100.00;100496.36;1640918;86;21068;-80
2022/04/05 10:03:10;;;;;;;12.05;9.95;;;;;;;8.07;100.00;100502.76;1653193;85;21564;-80
2022/04/05 10:05:39;;;;;;;10.53;9.45;;;;;;;8.19;100.00;100492.03;1651049;85;21077;-79
2022/04/05 10:08:08;;;;;;;10.95;9.83;;;;;;;8.23;100.00;100496.09;1657306;85;21178;-80
2022/04/05 10:10:37;;;;;;;11.08;9.98;;;;;;;8.25;100.00;100488.20;1658095;84;21133;-80
2022/04/05 10:13:05;;;;;;;12.15;9.73;;;;;;;8.22;100.00;100487.95;1639723;86;21590;-80
2022/04/05 10:15:35;;;;;;;11.08;9.98;;;;;;;8.22;100.00;100491.84;1640687;86;21103;-81
2022/04/05 10:18:06;;;;;;;12.73;10.43;;;;;;;8.26;100.00;100475.59;1657763;85;22274;-87
2022/04/05 10:20:35;;;;;;;13.65;9.63;;;;;;;8.41;100.00;100471.96;1655600;85;21625;-81
2022/04/05 10:23:05;;;;;;;11.12;8.88;;;;;;;8.60;100.00;100460.35;1654040;85;21021;-81
2022/04/05 10:25:32;;;;;;;10.68;9.08;;;;;;;8.74;100.00;100455.02;1654818;85;22222;-80
2022/04/05 10:28:03;;;;;;;10.70;9.08;;;;;;;8.81;100.00;100452.36;1657470;85;21079;-79
2022/04/05 10:30:39;;;;;;;11.45;9.68;;;;;;;8.82;100.00;100446.68;1648029;85;21068;-80
2022/04/05 10:33:37;;;;;;;11.65;9.68;;;;;;;8.77;100.00;100443.11;1640496;85;21254;-86
2022/04/05 10:36:06;;;;;;;12.43;9.03;;;;;;;8.66;100.00;100443.05;1649618;85;21081;-83
2022/04/05 10:38:34;;;;;;;11.20;8.90;;;;;;;8.52;100.00;100444.84;1642218;85;21113;-81
2022/04/05 10:41:21;;;;;;;11.20;8.35;;;;;;;8.44;100.00;100438.48;1676085;84;21058;-80
2022/04/05 10:44:23;;;;;;;10.48;9.38;;;;;;;8.36;100.00;100439.02;1649554;85;21058;-80
2022/04/05 10:47:03;;;;;;;9.65;8.73;;;;;;;8.30;100.00;100432.93;1614447;85;21270;-80
2022/04/05 10:49:42;;;;;;;12.07;8.98;;;;;;;8.24;100.00;100452.81;1676697;84;21033;-83
2022/04/05 10:52:27;;;;;;;9.53;8.63;;;;;;;8.20;100.00;100443.96;1656090;85;21184;-81
2022/04/05 10:55:08;;;;;;;10.32;8.30;;;;;;;8.27;100.00;100432.68;1669944;84;21080;-79
2022/04/05 10:57:38;;;;;;;11.50;9.18;;;;;;;8.45;100.00;100422.80;1658249;85;21750;-85
2022/04/05 11:00:22;;;;;;;14.95;9.18;;;;;;;8.63;100.00;100422.03;1651710;85;21306;-81
2022/04/05 11:03:02;;;;;;;11.40;8.45;;;;;;;8.74;100.00;100412.64;1670300;84;21059;-84
2022/04/05 11:05:41;;;;;;;9.23;7.90;;;;;;;8.79;100.00;100412.68;1657514;85;21506;-81
2022/04/05 11:08:16;;;;;;;11.03;8.20;;;;;;;8.82;100.00;100411.62;1658350;85;21061;-81
2022/04/05 11:10:49;;;;;;;8.95;8.10;;;;;;;8.79;100.00;100404.89;1647863;85;21055;-79
2022/04/05 11:13:30;;;;;;;11.68;10.15;;;;;;;8.81;100.00;100405.63;1650629;85;22283;-80
2022/04/05 11:15:59;;;;;;;9.90;8.50;;;;;;;8.88;100.00;100400.83;1642056;85;21176;-80
2022/04/05 11:18:35;;;;;;;9.38;7.95;;;;;;;9.03;100.00;100392.39;1644965;86;21058;-79
2022/04/05 11:21:07;;;;;;;11.48;8.38;;;;;;;9.20;100.00;100396.37;1646917;85;21053;-86
2022/04/05 11:23:45;;;;;;;8.15;7.35;;;;;;;9.35;100.00;100393.11;1639258;86;21121;-80
2022/04/05 11:26:35;;;;;;;10.05;7.30;;;;;;;9.38;100.00;100391.59;1650898;85;21278;-82